sensor_id;sensor_type;location;lat;lon;timestamp;temperature;humidity
44215;DHT22;29884;47.450;19.124;2024-03-06T00:00:47;7.60;99.90
44215;DHT22;29884;47.450;19.124;2024-03-06T00:03:12;7.60;99.90
44215;DHT22;29884;47.450;19.124;2024-03-06T00:05:38;7.60;99.90
44215;DHT22;29884;47.450;19.124;2024-03-06T00:08:04;7.50;99.90
44215;DHT22;29884;47.450;19.124;2024-03-06T00:10:29;7.50;99.90
44215;DHT22;29884;47.450;19.124;2024-03-06T00:12:55;7.50;99.90
44215;DHT22;29884;47.450;19.124;2024-03-06T00:15:21;7.50;99.90
44215;DHT22;29884;47.450;19.124;2024-03-06T00:17:46;7.50;99.90
44215;DHT22;29884;47.450;19.124;2024-03-06T00:20:12;7.50;99.90
44215;DHT22;29884;47.450;19.124;2024-03-06T00:22:39;7.50;99.90
44215;DHT22;29884;47.450;19.124;2024-03-06T00:25:05;7.50;99.90
44215;DHT22;29884;47.450;19.124;2024-03-06T00:27:31;7.50;99.90
44215;DHT22;29884;47.450;19.124;2024-03-06T00:29:56;7.40;99.90
44215;DHT22;29884;47.450;19.124;2024-03-06T00:32:23;7.40;99.90
44215;DHT22;29884;47.450;19.124;2024-03-06T00:34:49;7.40;99.90
44215;DHT22;29884;47.450;19.124;2024-03-06T00:37:14;7.40;99.90
44215;DHT22;29884;47.450;19.124;2024-03-06T00:39:40;7.40;99.90
44215;DHT22;29884;47.450;19.124;2024-03-06T00:42:06;7.40;99.90
44215;DHT22;29884;47.450;19.124;2024-03-06T00:44:34;7.30;99.90
44215;DHT22;29884;47.450;19.124;2024-03-06T00:46:59;7.30;99.90
44215;DHT22;29884;47.450;19.124;2024-03-06T00:49:25;7.30;99.90
44215;DHT22;29884;47.450;19.124;2024-03-06T00:51:51;7.30;99.90
44215;DHT22;29884;47.450;19.124;2024-03-06T00:54:16;7.20;99.90
44215;DHT22;29884;47.450;19.124;2024-03-06T00:56:42;7.20;99.90
44215;DHT22;29884;47.450;19.124;2024-03-06T00:59:08;7.20;99.90
44215;DHT22;29884;47.450;19.124;2024-03-06T01:01:33;7.20;99.90
44215;DHT22;29884;47.450;19.124;2024-03-06T01:03:59;7.10;99.90
44215;DHT22;29884;47.450;19.124;2024-03-06T01:06:25;7.10;99.90
44215;DHT22;29884;47.450;19.124;2024-03-06T01:08:50;7.10;99.90
44215;DHT22;29884;47.450;19.124;2024-03-06T01:11:16;7.00;99.90
44215;DHT22;29884;47.450;19.124;2024-03-06T01:13:41;7.00;99.90
44215;DHT22;29884;47.450;19.124;2024-03-06T01:16:07;6.90;99.90
44215;DHT22;29884;47.450;19.124;2024-03-06T01:18:32;6.90;99.90
44215;DHT22;29884;47.450;19.124;2024-03-06T01:20:58;6.90;99.90
44215;DHT22;29884;47.450;19.124;2024-03-06T01:23:24;6.90;99.90
44215;DHT22;29884;47.450;19.124;2024-03-06T01:25:49;6.90;99.90
44215;DHT22;29884;47.450;19.124;2024-03-06T01:28:15;6.90;99.90
44215;DHT22;29884;47.450;19.124;2024-03-06T01:30:40;6.80;99.90
44215;DHT22;29884;47.450;19.124;2024-03-06T01:33:06;6.80;99.90
44215;DHT22;29884;47.450;19.124;2024-03-06T01:35:32;6.90;99.90
44215;DHT22;29884;47.450;19.124;2024-03-06T01:37:57;6.80;99.90
44215;DHT22;29884;47.450;19.124;2024-03-06T01:40:23;6.80;99.90
44215;DHT22;29884;47.450;19.124;2024-03-06T01:42:49;6.70;99.90
44215;DHT22;29884;47.450;19.124;2024-03-06T01:45:15;6.60;99.90
44215;DHT22;29884;47.450;19.124;2024-03-06T01:47:41;6.60;99.90
44215;DHT22;29884;47.450;19.124;2024-03-06T01:50:07;6.60;99.90
44215;DHT22;29884;47.450;19.124;2024-03-06T01:52:35;6.50;99.90
44215;DHT22;29884;47.450;19.124;2024-03-06T01:55:02;6.40;99.90
44215;DHT22;29884;47.450;19.124;2024-03-06T01:57:28;6.40;99.90
44215;DHT22;29884;47.450;19.124;2024-03-06T01:59:54;6.40;99.90
44215;DHT22;29884;47.450;19.124;2024-03-06T02:02:20;6.50;99.90
44215;DHT22;29884;47.450;19.124;2024-03-06T02:04:46;6.60;99.90
44215;DHT22;29884;47.450;19.124;2024-03-06T02:07:13;6.60;99.90
44215;DHT22;29884;47.450;19.124;2024-03-06T02:09:40;6.60;99.90
44215;DHT22;29884;47.450;19.124;2024-03-06T02:12:06;6.50;99.90
44215;DHT22;29884;47.450;19.124;2024-03-06T02:14:36;6.50;99.90
44215;DHT22;29884;47.450;19.124;2024-03-06T02:17:02;6.50;99.90
44215;DHT22;29884;47.450;19.124;2024-03-06T02:19:41;6.40;99.90
44215;DHT22;29884;47.450;19.124;2024-03-06T02:22:07;6.50;99.90
44215;DHT22;29884;47.450;19.124;2024-03-06T02:24:33;6.30;99.90
44215;DHT22;29884;47.450;19.124;2024-03-06T02:26:59;6.30;99.90
44215;DHT22;29884;47.450;19.124;2024-03-06T02:29:25;6.20;99.90
44215;DHT22;29884;47.450;19.124;2024-03-06T02:31:50;6.10;99.90
44215;DHT22;29884;47.450;19.124;2024-03-06T02:34:16;6.10;99.90
44215;DHT22;29884;47.450;19.124;2024-03-06T02:36:42;6.00;99.90
44215;DHT22;29884;47.450;19.124;2024-03-06T02:39:08;6.00;99.90
44215;DHT22;29884;47.450;19.124;2024-03-06T02:41:35;6.00;99.90
44215;DHT22;29884;47.450;19.124;2024-03-06T02:44:01;5.90;99.90
44215;DHT22;29884;47.450;19.124;2024-03-06T02:46:28;5.90;99.90
44215;DHT22;29884;47.450;19.124;2024-03-06T02:48:54;5.80;99.90
44215;DHT22;29884;47.450;19.124;2024-03-06T02:51:20;5.80;99.90
44215;DHT22;29884;47.450;19.124;2024-03-06T02:53:46;5.80;99.90
44215;DHT22;29884;47.450;19.124;2024-03-06T02:56:17;5.70;99.90
44215;DHT22;29884;47.450;19.124;2024-03-06T02:58:43;5.70;99.90
44215;DHT22;29884;47.450;19.124;2024-03-06T03:01:08;5.60;99.90
44215;DHT22;29884;47.450;19.124;2024-03-06T03:03:34;5.60;99.90
44215;DHT22;29884;47.450;19.124;2024-03-06T03:06:00;5.60;99.90
44215;DHT22;29884;47.450;19.124;2024-03-06T03:08:26;5.60;99.90
44215;DHT22;29884;47.450;19.124;2024-03-06T03:10:51;5.50;99.90
44215;DHT22;29884;47.450;19.124;2024-03-06T03:13:17;5.50;99.90
44215;DHT22;29884;47.450;19.124;2024-03-06T03:15:43;5.50;99.90
44215;DHT22;29884;47.450;19.124;2024-03-06T03:18:08;5.40;99.90
44215;DHT22;29884;47.450;19.124;2024-03-06T03:20:34;5.40;99.90
44215;DHT22;29884;47.450;19.124;2024-03-06T03:23:01;5.40;99.90
44215;DHT22;29884;47.450;19.124;2024-03-06T03:25:27;5.30;99.90
44215;DHT22;29884;47.450;19.124;2024-03-06T03:27:53;5.30;99.90
44215;DHT22;29884;47.450;19.124;2024-03-06T03:30:18;5.30;99.90
44215;DHT22;29884;47.450;19.124;2024-03-06T03:32:47;5.30;99.90
44215;DHT22;29884;47.450;19.124;2024-03-06T03:35:13;5.20;99.90
44215;DHT22;29884;47.450;19.124;2024-03-06T03:37:39;5.20;99.90
44215;DHT22;29884;47.450;19.124;2024-03-06T03:40:06;5.10;99.90
44215;DHT22;29884;47.450;19.124;2024-03-06T03:42:32;5.20;99.90
44215;DHT22;29884;47.450;19.124;2024-03-06T03:44:57;5.20;99.90
44215;DHT22;29884;47.450;19.124;2024-03-06T03:47:23;5.10;99.90
44215;DHT22;29884;47.450;19.124;2024-03-06T03:49:49;5.00;99.90
44215;DHT22;29884;47.450;19.124;2024-03-06T03:52:15;5.00;99.90
44215;DHT22;29884;47.450;19.124;2024-03-06T03:54:40;5.10;99.90
44215;DHT22;29884;47.450;19.124;2024-03-06T03:57:06;5.10;99.90
44215;DHT22;29884;47.450;19.124;2024-03-06T03:59:33;5.10;99.90
44215;DHT22;29884;47.450;19.124;2024-03-06T04:01:59;5.00;99.90
44215;DHT22;29884;47.450;19.124;2024-03-06T04:04:25;5.00;99.90
44215;DHT22;29884;47.450;19.124;2024-03-06T04:06:50;5.00;99.90
44215;DHT22;29884;47.450;19.124;2024-03-06T04:09:16;4.90;99.90
44215;DHT22;29884;47.450;19.124;2024-03-06T04:11:42;4.90;99.90
44215;DHT22;29884;47.450;19.124;2024-03-06T04:14:07;4.90;99.90
44215;DHT22;29884;47.450;19.124;2024-03-06T04:16:34;4.90;99.90
44215;DHT22;29884;47.450;19.124;2024-03-06T04:19:00;4.90;99.90
44215;DHT22;29884;47.450;19.124;2024-03-06T04:21:26;4.80;99.90
44215;DHT22;29884;47.450;19.124;2024-03-06T04:23:51;4.80;99.90
44215;DHT22;29884;47.450;19.124;2024-03-06T04:26:17;4.80;99.90
44215;DHT22;29884;47.450;19.124;2024-03-06T04:28:43;4.70;99.90
44215;DHT22;29884;47.450;19.124;2024-03-06T04:31:09;4.70;99.90
44215;DHT22;29884;47.450;19.124;2024-03-06T04:33:35;4.70;99.90
44215;DHT22;29884;47.450;19.124;2024-03-06T04:36:02;4.70;99.90
44215;DHT22;29884;47.450;19.124;2024-03-06T04:38:28;4.70;99.90
44215;DHT22;29884;47.450;19.124;2024-03-06T04:40:54;4.70;99.90
44215;DHT22;29884;47.450;19.124;2024-03-06T04:43:20;4.70;99.90
44215;DHT22;29884;47.450;19.124;2024-03-06T04:45:45;4.70;99.90
44215;DHT22;29884;47.450;19.124;2024-03-06T04:48:11;4.60;99.90
44215;DHT22;29884;47.450;19.124;2024-03-06T04:50:37;4.60;99.90
44215;DHT22;29884;47.450;19.124;2024-03-06T04:53:03;4.60;99.90
44215;DHT22;29884;47.450;19.124;2024-03-06T04:55:28;4.60;99.90
44215;DHT22;29884;47.450;19.124;2024-03-06T04:57:56;4.60;99.90
44215;DHT22;29884;47.450;19.124;2024-03-06T05:00:21;4.60;99.90
44215;DHT22;29884;47.450;19.124;2024-03-06T05:02:47;4.60;99.90
44215;DHT22;29884;47.450;19.124;2024-03-06T05:05:14;4.60;99.90
44215;DHT22;29884;47.450;19.124;2024-03-06T05:07:40;4.60;99.90
44215;DHT22;29884;47.450;19.124;2024-03-06T05:10:06;4.60;99.90
44215;DHT22;29884;47.450;19.124;2024-03-06T05:12:33;4.70;99.90
44215;DHT22;29884;47.450;19.124;2024-03-06T05:15:00;4.70;99.90
44215;DHT22;29884;47.450;19.124;2024-03-06T05:17:25;4.60;99.90
44215;DHT22;29884;47.450;19.124;2024-03-06T05:19:51;4.60;99.90
44215;DHT22;29884;47.450;19.124;2024-03-06T05:22:17;4.50;99.90
44215;DHT22;29884;47.450;19.124;2024-03-06T05:24:43;4.50;99.90
44215;DHT22;29884;47.450;19.124;2024-03-06T05:27:09;4.50;99.90
44215;DHT22;29884;47.450;19.124;2024-03-06T05:29:36;4.50;99.90
44215;DHT22;29884;47.450;19.124;2024-03-06T05:32:02;4.50;99.90
44215;DHT22;29884;47.450;19.124;2024-03-06T05:34:29;4.50;99.90
44215;DHT22;29884;47.450;19.124;2024-03-06T05:36:55;4.50;99.90
44215;DHT22;29884;47.450;19.124;2024-03-06T05:39:21;4.50;99.90
44215;DHT22;29884;47.450;19.124;2024-03-06T05:41:46;4.50;99.90
44215;DHT22;29884;47.450;19.124;2024-03-06T05:44:12;4.60;99.90
44215;DHT22;29884;47.450;19.124;2024-03-06T05:46:37;4.60;99.90
44215;DHT22;29884;47.450;19.124;2024-03-06T05:49:03;4.60;99.90
44215;DHT22;29884;47.450;19.124;2024-03-06T05:51:30;4.70;99.90
44215;DHT22;29884;47.450;19.124;2024-03-06T05:53:55;4.70;99.90
44215;DHT22;29884;47.450;19.124;2024-03-06T05:56:21;4.70;99.90
44215;DHT22;29884;47.450;19.124;2024-03-06T05:58:47;4.80;99.90
44215;DHT22;29884;47.450;19.124;2024-03-06T06:01:16;4.80;99.90
44215;DHT22;29884;47.450;19.124;2024-03-06T06:03:46;4.90;99.90
44215;DHT22;29884;47.450;19.124;2024-03-06T06:06:14;5.00;99.90
44215;DHT22;29884;47.450;19.124;2024-03-06T06:08:39;5.10;99.90
44215;DHT22;29884;47.450;19.124;2024-03-06T06:11:05;5.30;99.90
44215;DHT22;29884;47.450;19.124;2024-03-06T06:13:30;5.40;99.90
44215;DHT22;29884;47.450;19.124;2024-03-06T06:15:59;5.40;99.90
44215;DHT22;29884;47.450;19.124;2024-03-06T06:18:26;5.60;99.90
44215;DHT22;29884;47.450;19.124;2024-03-06T06:20:52;5.80;99.90
44215;DHT22;29884;47.450;19.124;2024-03-06T06:23:17;6.00;99.90
44215;DHT22;29884;47.450;19.124;2024-03-06T06:25:43;6.30;99.90
44215;DHT22;29884;47.450;19.124;2024-03-06T06:28:09;6.30;99.90
44215;DHT22;29884;47.450;19.124;2024-03-06T06:30:35;6.40;99.90
44215;DHT22;29884;47.450;19.124;2024-03-06T06:33:01;6.60;99.90
44215;DHT22;29884;47.450;19.124;2024-03-06T06:35:27;6.70;99.90
44215;DHT22;29884;47.450;19.124;2024-03-06T06:37:52;6.90;99.90
44215;DHT22;29884;47.450;19.124;2024-03-06T06:40:18;7.10;99.90
44215;DHT22;29884;47.450;19.124;2024-03-06T06:42:49;7.20;99.90
44215;DHT22;29884;47.450;19.124;2024-03-06T06:45:19;7.20;99.90
44215;DHT22;29884;47.450;19.124;2024-03-06T06:47:46;7.20;99.90
44215;DHT22;29884;47.450;19.124;2024-03-06T06:50:12;7.40;99.90
44215;DHT22;29884;47.450;19.124;2024-03-06T06:52:38;7.60;99.90
44215;DHT22;29884;47.450;19.124;2024-03-06T06:55:05;7.70;99.90
44215;DHT22;29884;47.450;19.124;2024-03-06T06:57:31;7.60;99.90
44215;DHT22;29884;47.450;19.124;2024-03-06T06:59:58;7.70;99.90
44215;DHT22;29884;47.450;19.124;2024-03-06T07:02:24;7.70;99.90
44215;DHT22;29884;47.450;19.124;2024-03-06T07:04:50;7.70;99.90
44215;DHT22;29884;47.450;19.124;2024-03-06T07:07:16;7.80;99.90
44215;DHT22;29884;47.450;19.124;2024-03-06T07:09:42;7.90;99.90
44215;DHT22;29884;47.450;19.124;2024-03-06T07:12:09;7.90;99.90
44215;DHT22;29884;47.450;19.124;2024-03-06T07:14:34;8.10;99.90
44215;DHT22;29884;47.450;19.124;2024-03-06T07:17:00;8.30;99.90
44215;DHT22;29884;47.450;19.124;2024-03-06T07:19:26;8.40;99.90
44215;DHT22;29884;47.450;19.124;2024-03-06T07:21:51;8.40;99.90
44215;DHT22;29884;47.450;19.124;2024-03-06T07:24:19;8.60;99.90
44215;DHT22;29884;47.450;19.124;2024-03-06T07:26:44;8.90;99.90
44215;DHT22;29884;47.450;19.124;2024-03-06T07:29:10;9.00;99.90
44215;DHT22;29884;47.450;19.124;2024-03-06T07:31:41;9.10;99.90
44215;DHT22;29884;47.450;19.124;2024-03-06T07:34:07;9.30;99.90
44215;DHT22;29884;47.450;19.124;2024-03-06T07:36:34;9.50;99.90
44215;DHT22;29884;47.450;19.124;2024-03-06T07:39:00;9.60;99.90
44215;DHT22;29884;47.450;19.124;2024-03-06T07:41:26;9.70;99.90
44215;DHT22;29884;47.450;19.124;2024-03-06T07:43:52;9.70;99.90
44215;DHT22;29884;47.450;19.124;2024-03-06T07:46:17;9.80;99.90
44215;DHT22;29884;47.450;19.124;2024-03-06T07:48:43;9.80;99.90
44215;DHT22;29884;47.450;19.124;2024-03-06T07:51:09;9.80;99.90
44215;DHT22;29884;47.450;19.124;2024-03-06T07:53:35;9.70;99.90
44215;DHT22;29884;47.450;19.124;2024-03-06T07:56:02;9.80;99.90
44215;DHT22;29884;47.450;19.124;2024-03-06T07:58:28;10.10;99.90
44215;DHT22;29884;47.450;19.124;2024-03-06T08:00:54;10.20;99.90
44215;DHT22;29884;47.450;19.124;2024-03-06T08:03:22;10.30;99.90
44215;DHT22;29884;47.450;19.124;2024-03-06T08:05:51;10.50;99.90
44215;DHT22;29884;47.450;19.124;2024-03-06T08:08:18;10.60;99.90
44215;DHT22;29884;47.450;19.124;2024-03-06T08:10:43;10.60;99.90
44215;DHT22;29884;47.450;19.124;2024-03-06T08:13:10;10.60;99.90
44215;DHT22;29884;47.450;19.124;2024-03-06T08:15:36;10.60;99.90
44215;DHT22;29884;47.450;19.124;2024-03-06T08:18:01;10.70;99.90
44215;DHT22;29884;47.450;19.124;2024-03-06T08:20:29;10.70;99.90
44215;DHT22;29884;47.450;19.124;2024-03-06T08:22:55;10.70;99.90
44215;DHT22;29884;47.450;19.124;2024-03-06T08:25:22;10.90;99.90
44215;DHT22;29884;47.450;19.124;2024-03-06T08:27:48;11.20;99.90
44215;DHT22;29884;47.450;19.124;2024-03-06T08:30:14;11.20;99.90
44215;DHT22;29884;47.450;19.124;2024-03-06T08:32:40;11.30;99.90
44215;DHT22;29884;47.450;19.124;2024-03-06T08:35:08;11.30;99.90
44215;DHT22;29884;47.450;19.124;2024-03-06T08:37:37;11.40;99.90
44215;DHT22;29884;47.450;19.124;2024-03-06T08:40:03;11.70;99.90
44215;DHT22;29884;47.450;19.124;2024-03-06T08:42:29;11.80;99.90
44215;DHT22;29884;47.450;19.124;2024-03-06T08:44:55;12.00;99.90
44215;DHT22;29884;47.450;19.124;2024-03-06T08:47:22;12.10;99.90
44215;DHT22;29884;47.450;19.124;2024-03-06T08:49:47;11.90;99.90
44215;DHT22;29884;47.450;19.124;2024-03-06T08:52:13;12.00;99.90
44215;DHT22;29884;47.450;19.124;2024-03-06T08:54:40;12.10;99.90
44215;DHT22;29884;47.450;19.124;2024-03-06T08:57:07;12.20;99.90
44215;DHT22;29884;47.450;19.124;2024-03-06T08:59:36;12.20;99.90
44215;DHT22;29884;47.450;19.124;2024-03-06T09:02:17;12.30;99.90
44215;DHT22;29884;47.450;19.124;2024-03-06T09:04:44;12.50;99.90
44215;DHT22;29884;47.450;19.124;2024-03-06T09:07:10;12.60;99.90
44215;DHT22;29884;47.450;19.124;2024-03-06T09:09:36;12.60;99.90
44215;DHT22;29884;47.450;19.124;2024-03-06T09:14:31;12.80;99.90
44215;DHT22;29884;47.450;19.124;2024-03-06T09:16:57;13.00;99.90
44215;DHT22;29884;47.450;19.124;2024-03-06T09:19:23;13.10;99.90
44215;DHT22;29884;47.450;19.124;2024-03-06T09:21:48;13.20;99.90
44215;DHT22;29884;47.450;19.124;2024-03-06T09:24:14;13.20;99.90
44215;DHT22;29884;47.450;19.124;2024-03-06T09:26:40;13.30;99.90
44215;DHT22;29884;47.450;19.124;2024-03-06T09:29:05;13.50;99.90
44215;DHT22;29884;47.450;19.124;2024-03-06T09:31:31;13.70;99.90
44215;DHT22;29884;47.450;19.124;2024-03-06T09:33:56;13.90;99.90
44215;DHT22;29884;47.450;19.124;2024-03-06T09:36:23;13.90;99.90
44215;DHT22;29884;47.450;19.124;2024-03-06T09:38:49;13.80;99.90
44215;DHT22;29884;47.450;19.124;2024-03-06T09:41:14;13.90;99.90
44215;DHT22;29884;47.450;19.124;2024-03-06T09:43:40;13.90;99.90
44215;DHT22;29884;47.450;19.124;2024-03-06T09:46:09;13.70;99.90
44215;DHT22;29884;47.450;19.124;2024-03-06T09:48:34;13.90;99.90
44215;DHT22;29884;47.450;19.124;2024-03-06T09:51:01;13.90;99.90
44215;DHT22;29884;47.450;19.124;2024-03-06T09:53:28;13.90;99.90
44215;DHT22;29884;47.450;19.124;2024-03-06T09:55:56;14.00;99.90
44215;DHT22;29884;47.450;19.124;2024-03-06T09:58:23;14.30;99.00
44215;DHT22;29884;47.450;19.124;2024-03-06T10:00:51;14.50;99.30
44215;DHT22;29884;47.450;19.124;2024-03-06T10:03:16;14.50;96.90
44215;DHT22;29884;47.450;19.124;2024-03-06T10:05:42;14.50;97.80
44215;DHT22;29884;47.450;19.124;2024-03-06T10:08:09;14.30;97.40
44215;DHT22;29884;47.450;19.124;2024-03-06T10:10:35;14.40;98.80
44215;DHT22;29884;47.450;19.124;2024-03-06T10:13:02;14.40;98.50
44215;DHT22;29884;47.450;19.124;2024-03-06T10:15:28;14.10;97.50
44215;DHT22;29884;47.450;19.124;2024-03-06T10:18:13;14.20;97.60
44215;DHT22;29884;47.450;19.124;2024-03-06T10:20:39;14.50;96.20
44215;DHT22;29884;47.450;19.124;2024-03-06T10:23:05;14.30;96.40
44215;DHT22;29884;47.450;19.124;2024-03-06T10:25:33;14.70;96.00
44215;DHT22;29884;47.450;19.124;2024-03-06T10:28:12;14.70;95.20
44215;DHT22;29884;47.450;19.124;2024-03-06T10:30:40;14.40;95.20
44215;DHT22;29884;47.450;19.124;2024-03-06T10:33:09;14.50;95.80
44215;DHT22;29884;47.450;19.124;2024-03-06T10:35:35;14.20;95.80
44215;DHT22;29884;47.450;19.124;2024-03-06T10:38:04;14.20;95.90
44215;DHT22;29884;47.450;19.124;2024-03-06T10:40:34;14.10;95.40
44215;DHT22;29884;47.450;19.124;2024-03-06T10:43:01;14.20;94.80
44215;DHT22;29884;47.450;19.124;2024-03-06T10:45:47;14.30;94.20
44215;DHT22;29884;47.450;19.124;2024-03-06T10:48:14;14.20;94.00
44215;DHT22;29884;47.450;19.124;2024-03-06T10:50:41;14.30;94.00
44215;DHT22;29884;47.450;19.124;2024-03-06T10:53:10;14.20;94.00
44215;DHT22;29884;47.450;19.124;2024-03-06T10:55:36;14.40;94.10
44215;DHT22;29884;47.450;19.124;2024-03-06T10:58:05;14.70;93.60
44215;DHT22;29884;47.450;19.124;2024-03-06T11:01:07;14.90;94.40
44215;DHT22;29884;47.450;19.124;2024-03-06T11:03:27;15.10;93.80
44215;DHT22;29884;47.450;19.124;2024-03-06T11:05:54;15.10;92.50
44215;DHT22;29884;47.450;19.124;2024-03-06T11:08:20;15.20;92.10
44215;DHT22;29884;47.450;19.124;2024-03-06T11:10:46;15.10;91.20
44215;DHT22;29884;47.450;19.124;2024-03-06T11:13:24;14.80;91.30
44215;DHT22;29884;47.450;19.124;2024-03-06T11:15:52;14.90;93.50
44215;DHT22;29884;47.450;19.124;2024-03-06T11:23:27;15.00;91.70
44215;DHT22;29884;47.450;19.124;2024-03-06T11:28:33;14.90;91.50
44215;DHT22;29884;47.450;19.124;2024-03-06T11:31:04;15.20;91.30
44215;DHT22;29884;47.450;19.124;2024-03-06T11:33:37;15.30;90.90
44215;DHT22;29884;47.450;19.124;2024-03-06T11:41:13;15.30;87.70
44215;DHT22;29884;47.450;19.124;2024-03-06T11:43:42;15.30;90.30
44215;DHT22;29884;47.450;19.124;2024-03-06T11:46:09;15.50;86.80
44215;DHT22;29884;47.450;19.124;2024-03-06T11:48:39;15.50;87.10
44215;DHT22;29884;47.450;19.124;2024-03-06T11:51:05;15.40;87.60
44215;DHT22;29884;47.450;19.124;2024-03-06T11:53:33;15.30;87.70
44215;DHT22;29884;47.450;19.124;2024-03-06T11:55:59;15.50;87.70
44215;DHT22;29884;47.450;19.124;2024-03-06T11:58:24;15.50;88.00
44215;DHT22;29884;47.450;19.124;2024-03-06T12:00:50;15.30;88.80
44215;DHT22;29884;47.450;19.124;2024-03-06T12:03:17;15.30;88.50
44215;DHT22;29884;47.450;19.124;2024-03-06T12:05:44;15.30;86.00
44215;DHT22;29884;47.450;19.124;2024-03-06T12:08:10;15.20;85.50
44215;DHT22;29884;47.450;19.124;2024-03-06T12:10:39;15.30;87.30
44215;DHT22;29884;47.450;19.124;2024-03-06T12:13:05;15.10;90.70
44215;DHT22;29884;47.450;19.124;2024-03-06T12:15:31;14.90;90.20
44215;DHT22;29884;47.450;19.124;2024-03-06T12:17:56;15.00;90.80
44215;DHT22;29884;47.450;19.124;2024-03-06T12:20:24;15.20;90.40
44215;DHT22;29884;47.450;19.124;2024-03-06T12:22:50;15.30;90.00
44215;DHT22;29884;47.450;19.124;2024-03-06T12:25:24;15.30;89.30
44215;DHT22;29884;47.450;19.124;2024-03-06T12:27:50;15.20;87.10
44215;DHT22;29884;47.450;19.124;2024-03-06T12:30:17;15.30;86.80
44215;DHT22;29884;47.450;19.124;2024-03-06T12:32:44;15.30;88.40
44215;DHT22;29884;47.450;19.124;2024-03-06T12:35:09;15.20;85.60
44215;DHT22;29884;47.450;19.124;2024-03-06T12:37:35;15.10;85.90
44215;DHT22;29884;47.450;19.124;2024-03-06T12:40:02;15.30;87.30
44215;DHT22;29884;47.450;19.124;2024-03-06T12:42:29;15.30;89.20
44215;DHT22;29884;47.450;19.124;2024-03-06T12:44:55;15.20;90.10
44215;DHT22;29884;47.450;19.124;2024-03-06T12:47:21;15.30;88.50
44215;DHT22;29884;47.450;19.124;2024-03-06T12:49:47;15.20;86.00
44215;DHT22;29884;47.450;19.124;2024-03-06T12:52:13;15.10;86.40
44215;DHT22;29884;47.450;19.124;2024-03-06T12:54:38;15.10;87.60
44215;DHT22;29884;47.450;19.124;2024-03-06T12:57:04;15.20;87.70
44215;DHT22;29884;47.450;19.124;2024-03-06T12:59:30;15.00;90.60
44215;DHT22;29884;47.450;19.124;2024-03-06T13:01:55;15.10;90.20
44215;DHT22;29884;47.450;19.124;2024-03-06T13:04:21;15.20;90.20
44215;DHT22;29884;47.450;19.124;2024-03-06T13:06:46;15.20;90.10
44215;DHT22;29884;47.450;19.124;2024-03-06T13:09:12;15.20;90.30
44215;DHT22;29884;47.450;19.124;2024-03-06T13:11:38;15.20;89.80
44215;DHT22;29884;47.450;19.124;2024-03-06T13:14:03;15.20;87.20
44215;DHT22;29884;47.450;19.124;2024-03-06T13:16:29;15.30;87.80
44215;DHT22;29884;47.450;19.124;2024-03-06T13:18:54;15.50;87.60
44215;DHT22;29884;47.450;19.124;2024-03-06T13:21:22;15.70;86.40
44215;DHT22;29884;47.450;19.124;2024-03-06T13:23:48;15.80;83.40
44215;DHT22;29884;47.450;19.124;2024-03-06T13:26:14;15.80;85.20
44215;DHT22;29884;47.450;19.124;2024-03-06T13:28:40;15.80;83.30
44215;DHT22;29884;47.450;19.124;2024-03-06T13:31:06;15.70;83.20
44215;DHT22;29884;47.450;19.124;2024-03-06T13:33:32;15.70;83.20
44215;DHT22;29884;47.450;19.124;2024-03-06T13:35:58;15.70;84.20
44215;DHT22;29884;47.450;19.124;2024-03-06T13:38:24;15.60;84.20
44215;DHT22;29884;47.450;19.124;2024-03-06T13:40:49;15.30;84.70
44215;DHT22;29884;47.450;19.124;2024-03-06T13:43:15;15.30;85.40
44215;DHT22;29884;47.450;19.124;2024-03-06T13:45:50;15.30;85.20
44215;DHT22;29884;47.450;19.124;2024-03-06T13:48:15;15.40;86.40
44215;DHT22;29884;47.450;19.124;2024-03-06T13:50:43;15.40;84.70
44215;DHT22;29884;47.450;19.124;2024-03-06T13:53:09;15.20;85.60
44215;DHT22;29884;47.450;19.124;2024-03-06T13:55:35;15.30;83.40
44215;DHT22;29884;47.450;19.124;2024-03-06T13:58:01;15.10;84.30
44215;DHT22;29884;47.450;19.124;2024-03-06T14:00:27;14.80;75.90
44215;DHT22;29884;47.450;19.124;2024-03-06T14:02:52;14.20;75.50
44215;DHT22;29884;47.450;19.124;2024-03-06T14:05:18;13.60;85.80
44215;DHT22;29884;47.450;19.124;2024-03-06T14:07:50;12.70;95.80
44215;DHT22;29884;47.450;19.124;2024-03-06T14:10:16;12.30;98.90
44215;DHT22;29884;47.450;19.124;2024-03-06T14:12:44;12.10;98.20
44215;DHT22;29884;47.450;19.124;2024-03-06T14:15:10;12.00;99.90
44215;DHT22;29884;47.450;19.124;2024-03-06T14:17:40;11.80;99.90
44215;DHT22;29884;47.450;19.124;2024-03-06T14:20:07;11.60;99.90
44215;DHT22;29884;47.450;19.124;2024-03-06T14:22:33;11.60;99.90
44215;DHT22;29884;47.450;19.124;2024-03-06T14:24:58;11.50;99.90
44215;DHT22;29884;47.450;19.124;2024-03-06T14:27:24;11.60;99.90
44215;DHT22;29884;47.450;19.124;2024-03-06T14:29:49;11.80;99.90
44215;DHT22;29884;47.450;19.124;2024-03-06T14:32:18;11.90;99.90
44215;DHT22;29884;47.450;19.124;2024-03-06T14:34:44;12.00;99.90
44215;DHT22;29884;47.450;19.124;2024-03-06T14:37:10;12.00;99.90
44215;DHT22;29884;47.450;19.124;2024-03-06T14:39:36;12.10;99.90
44215;DHT22;29884;47.450;19.124;2024-03-06T14:42:01;12.10;99.90
44215;DHT22;29884;47.450;19.124;2024-03-06T14:44:29;12.20;99.90
44215;DHT22;29884;47.450;19.124;2024-03-06T14:46:55;12.40;99.90
44215;DHT22;29884;47.450;19.124;2024-03-06T14:49:21;12.40;99.90
44215;DHT22;29884;47.450;19.124;2024-03-06T14:51:46;12.40;99.90
44215;DHT22;29884;47.450;19.124;2024-03-06T14:54:12;12.50;99.90
44215;DHT22;29884;47.450;19.124;2024-03-06T14:56:38;12.60;99.90
44215;DHT22;29884;47.450;19.124;2024-03-06T14:59:03;12.60;99.90
44215;DHT22;29884;47.450;19.124;2024-03-06T15:01:29;12.60;99.90
44215;DHT22;29884;47.450;19.124;2024-03-06T15:03:56;12.60;99.90
44215;DHT22;29884;47.450;19.124;2024-03-06T15:06:21;12.60;99.90
44215;DHT22;29884;47.450;19.124;2024-03-06T15:08:48;12.60;99.90
44215;DHT22;29884;47.450;19.124;2024-03-06T15:11:13;12.50;99.90
44215;DHT22;29884;47.450;19.124;2024-03-06T15:13:40;12.40;99.90
44215;DHT22;29884;47.450;19.124;2024-03-06T15:16:05;12.40;99.90
44215;DHT22;29884;47.450;19.124;2024-03-06T15:18:31;12.30;99.90
44215;DHT22;29884;47.450;19.124;2024-03-06T15:20:58;12.30;99.90
44215;DHT22;29884;47.450;19.124;2024-03-06T15:23:23;12.40;99.90
44215;DHT22;29884;47.450;19.124;2024-03-06T15:25:49;12.30;99.90
44215;DHT22;29884;47.450;19.124;2024-03-06T15:28:14;12.20;99.90
44215;DHT22;29884;47.450;19.124;2024-03-06T15:30:40;12.30;99.90
44215;DHT22;29884;47.450;19.124;2024-03-06T15:33:06;12.30;99.90